sensor_id;sensor_type;location;lat;lon;timestamp;P1;durP1;ratioP1;P2;durP2;ratioP2
5831;SDS011;50943;51.448;7.646;2022-11-20T00:01:17;37.90;;;16.57;;
5831;SDS011;50943;51.448;7.646;2022-11-20T00:03:43;39.27;;;17.70;;
5831;SDS011;50943;51.448;7.646;2022-11-20T00:06:11;36.97;;;17.30;;
5831;SDS011;50943;51.448;7.646;2022-11-20T00:08:38;34.97;;;16.77;;
5831;SDS011;50943;51.448;7.646;2022-11-20T00:11:06;32.33;;;16.60;;
5831;SDS011;50943;51.448;7.646;2022-11-20T00:13:32;42.03;;;18.00;;
5831;SDS011;50943;51.448;7.646;2022-11-20T00:15:59;34.90;;;15.80;;
5831;SDS011;50943;51.448;7.646;2022-11-20T00:18:26;35.77;;;15.40;;
5831;SDS011;50943;51.448;7.646;2022-11-20T00:20:59;39.50;;;17.63;;
5831;SDS011;50943;51.448;7.646;2022-11-20T00:23:26;38.83;;;16.00;;
5831;SDS011;50943;51.448;7.646;2022-11-20T00:25:53;40.57;;;16.30;;
5831;SDS011;50943;51.448;7.646;2022-11-20T00:28:20;40.53;;;16.77;;
5831;SDS011;50943;51.448;7.646;2022-11-20T00:30:46;33.23;;;17.23;;
5831;SDS011;50943;51.448;7.646;2022-11-20T00:33:13;42.33;;;17.47;;
5831;SDS011;50943;51.448;7.646;2022-11-20T00:35:39;39.53;;;16.17;;
5831;SDS011;50943;51.448;7.646;2022-11-20T00:38:05;33.30;;;16.50;;
5831;SDS011;50943;51.448;7.646;2022-11-20T00:40:32;38.43;;;17.00;;
5831;SDS011;50943;51.448;7.646;2022-11-20T00:43:00;35.30;;;16.00;;
5831;SDS011;50943;51.448;7.646;2022-11-20T00:45:27;37.80;;;16.23;;
5831;SDS011;50943;51.448;7.646;2022-11-20T00:47:53;34.57;;;16.10;;
5831;SDS011;50943;51.448;7.646;2022-11-20T00:50:20;42.53;;;17.17;;
5831;SDS011;50943;51.448;7.646;2022-11-20T00:52:46;36.43;;;17.13;;
5831;SDS011;50943;51.448;7.646;2022-11-20T00:55:12;37.20;;;17.20;;
5831;SDS011;50943;51.448;7.646;2022-11-20T00:57:39;38.90;;;17.77;;
5831;SDS011;50943;51.448;7.646;2022-11-20T01:00:08;40.30;;;18.07;;
5831;SDS011;50943;51.448;7.646;2022-11-20T01:02:34;41.77;;;18.60;;
5831;SDS011;50943;51.448;7.646;2022-11-20T01:05:02;43.10;;;18.73;;
5831;SDS011;50943;51.448;7.646;2022-11-20T01:07:28;38.60;;;17.47;;
5831;SDS011;50943;51.448;7.646;2022-11-20T01:09:54;33.93;;;16.57;;
5831;SDS011;50943;51.448;7.646;2022-11-20T01:12:21;40.63;;;19.27;;
5831;SDS011;50943;51.448;7.646;2022-11-20T01:14:47;39.10;;;18.17;;
5831;SDS011;50943;51.448;7.646;2022-11-20T01:17:15;40.30;;;18.10;;
5831;SDS011;50943;51.448;7.646;2022-11-20T01:19:41;36.97;;;18.87;;
5831;SDS011;50943;51.448;7.646;2022-11-20T01:22:07;32.97;;;16.00;;
5831;SDS011;50943;51.448;7.646;2022-11-20T01:24:34;34.77;;;16.60;;
5831;SDS011;50943;51.448;7.646;2022-11-20T01:27:01;34.83;;;17.10;;
5831;SDS011;50943;51.448;7.646;2022-11-20T01:29:28;37.07;;;17.87;;
5831;SDS011;50943;51.448;7.646;2022-11-20T01:31:54;45.60;;;17.80;;
5831;SDS011;50943;51.448;7.646;2022-11-20T01:34:22;37.87;;;16.97;;
5831;SDS011;50943;51.448;7.646;2022-11-20T01:36:49;31.30;;;15.90;;
5831;SDS011;50943;51.448;7.646;2022-11-20T01:39:16;37.30;;;16.57;;
5831;SDS011;50943;51.448;7.646;2022-11-20T01:41:43;39.03;;;18.87;;
5831;SDS011;50943;51.448;7.646;2022-11-20T01:44:50;33.70;;;15.60;;
5831;SDS011;50943;51.448;7.646;2022-11-20T01:47:17;38.47;;;17.07;;
5831;SDS011;50943;51.448;7.646;2022-11-20T01:49:48;38.60;;;17.10;;
5831;SDS011;50943;51.448;7.646;2022-11-20T01:52:16;36.03;;;16.80;;
5831;SDS011;50943;51.448;7.646;2022-11-20T01:54:44;38.23;;;18.53;;
5831;SDS011;50943;51.448;7.646;2022-11-20T01:57:12;34.70;;;17.30;;
5831;SDS011;50943;51.448;7.646;2022-11-20T01:59:40;36.27;;;16.47;;
5831;SDS011;50943;51.448;7.646;2022-11-20T02:02:07;35.57;;;16.37;;
5831;SDS011;50943;51.448;7.646;2022-11-20T02:04:34;41.17;;;17.40;;
5831;SDS011;50943;51.448;7.646;2022-11-20T02:07:02;40.63;;;17.13;;
5831;SDS011;50943;51.448;7.646;2022-11-20T02:09:30;36.43;;;16.90;;
5831;SDS011;50943;51.448;7.646;2022-11-20T02:11:56;35.53;;;16.30;;
5831;SDS011;50943;51.448;7.646;2022-11-20T02:14:23;34.57;;;16.70;;
5831;SDS011;50943;51.448;7.646;2022-11-20T02:16:49;38.97;;;17.90;;
5831;SDS011;50943;51.448;7.646;2022-11-20T02:19:17;36.93;;;16.63;;
5831;SDS011;50943;51.448;7.646;2022-11-20T02:21:47;35.83;;;17.67;;
5831;SDS011;50943;51.448;7.646;2022-11-20T02:24:16;36.07;;;17.20;;
5831;SDS011;50943;51.448;7.646;2022-11-20T02:26:46;40.80;;;17.93;;
5831;SDS011;50943;51.448;7.646;2022-11-20T02:29:13;35.17;;;15.83;;
5831;SDS011;50943;51.448;7.646;2022-11-20T02:31:41;34.93;;;18.00;;
5831;SDS011;50943;51.448;7.646;2022-11-20T02:34:08;35.33;;;15.83;;
5831;SDS011;50943;51.448;7.646;2022-11-20T02:36:35;34.10;;;16.77;;
5831;SDS011;50943;51.448;7.646;2022-11-20T02:39:02;37.00;;;17.17;;
5831;SDS011;50943;51.448;7.646;2022-11-20T02:41:33;31.50;;;15.83;;
5831;SDS011;50943;51.448;7.646;2022-11-20T02:44:00;36.30;;;17.37;;
5831;SDS011;50943;51.448;7.646;2022-11-20T02:46:27;41.90;;;16.90;;
5831;SDS011;50943;51.448;7.646;2022-11-20T02:48:53;42.97;;;17.80;;
5831;SDS011;50943;51.448;7.646;2022-11-20T02:51:19;35.50;;;16.37;;
5831;SDS011;50943;51.448;7.646;2022-11-20T02:53:46;32.77;;;15.90;;
5831;SDS011;50943;51.448;7.646;2022-11-20T02:56:12;45.07;;;20.10;;
5831;SDS011;50943;51.448;7.646;2022-11-20T02:58:40;37.00;;;17.83;;
5831;SDS011;50943;51.448;7.646;2022-11-20T03:01:06;40.43;;;17.97;;
5831;SDS011;50943;51.448;7.646;2022-11-20T03:03:33;41.40;;;17.67;;
5831;SDS011;50943;51.448;7.646;2022-11-20T03:05:59;39.10;;;19.50;;
5831;SDS011;50943;51.448;7.646;2022-11-20T03:08:26;38.83;;;17.20;;
5831;SDS011;50943;51.448;7.646;2022-11-20T03:10:53;34.97;;;16.77;;
5831;SDS011;50943;51.448;7.646;2022-11-20T03:13:19;44.43;;;19.40;;
5831;SDS011;50943;51.448;7.646;2022-11-20T03:15:47;39.43;;;17.03;;
5831;SDS011;50943;51.448;7.646;2022-11-20T03:18:13;38.10;;;16.87;;
5831;SDS011;50943;51.448;7.646;2022-11-20T03:20:40;34.03;;;16.50;;
5831;SDS011;50943;51.448;7.646;2022-11-20T03:23:06;39.47;;;17.37;;
5831;SDS011;50943;51.448;7.646;2022-11-20T03:25:32;39.30;;;18.20;;
5831;SDS011;50943;51.448;7.646;2022-11-20T03:27:59;41.30;;;18.30;;
5831;SDS011;50943;51.448;7.646;2022-11-20T03:30:25;38.50;;;19.10;;
5831;SDS011;50943;51.448;7.646;2022-11-20T03:32:54;39.93;;;17.03;;
5831;SDS011;50943;51.448;7.646;2022-11-20T03:35:20;37.53;;;16.20;;
5831;SDS011;50943;51.448;7.646;2022-11-20T03:37:47;31.00;;;14.97;;
5831;SDS011;50943;51.448;7.646;2022-11-20T03:40:13;32.43;;;16.33;;
5831;SDS011;50943;51.448;7.646;2022-11-20T03:42:40;30.23;;;15.67;;
5831;SDS011;50943;51.448;7.646;2022-11-20T03:45:13;33.27;;;15.00;;
5831;SDS011;50943;51.448;7.646;2022-11-20T03:47:40;34.70;;;16.13;;
5831;SDS011;50943;51.448;7.646;2022-11-20T03:50:08;36.83;;;16.90;;
5831;SDS011;50943;51.448;7.646;2022-11-20T03:52:35;33.80;;;15.27;;
5831;SDS011;50943;51.448;7.646;2022-11-20T03:55:01;35.23;;;15.50;;
5831;SDS011;50943;51.448;7.646;2022-11-20T03:57:27;40.90;;;17.70;;
5831;SDS011;50943;51.448;7.646;2022-11-20T03:59:54;35.17;;;17.13;;
5831;SDS011;50943;51.448;7.646;2022-11-20T04:02:20;32.57;;;16.23;;
5831;SDS011;50943;51.448;7.646;2022-11-20T04:04:46;37.27;;;16.60;;
5831;SDS011;50943;51.448;7.646;2022-11-20T04:07:14;40.17;;;18.40;;
5831;SDS011;50943;51.448;7.646;2022-11-20T04:09:40;33.23;;;16.10;;
5831;SDS011;50943;51.448;7.646;2022-11-20T04:12:07;32.90;;;16.10;;
5831;SDS011;50943;51.448;7.646;2022-11-20T04:14:33;41.43;;;18.47;;
5831;SDS011;50943;51.448;7.646;2022-11-20T04:16:59;37.23;;;15.83;;
5831;SDS011;50943;51.448;7.646;2022-11-20T04:19:26;32.20;;;16.27;;
5831;SDS011;50943;51.448;7.646;2022-11-20T04:21:52;33.37;;;16.23;;
5831;SDS011;50943;51.448;7.646;2022-11-20T04:24:20;32.73;;;17.33;;
5831;SDS011;50943;51.448;7.646;2022-11-20T04:26:46;34.57;;;15.47;;
5831;SDS011;50943;51.448;7.646;2022-11-20T04:29:13;35.93;;;15.40;;
5831;SDS011;50943;51.448;7.646;2022-11-20T04:31:39;30.87;;;16.73;;
5831;SDS011;50943;51.448;7.646;2022-11-20T04:34:06;34.53;;;15.77;;
5831;SDS011;50943;51.448;7.646;2022-11-20T04:36:33;29.47;;;14.50;;
5831;SDS011;50943;51.448;7.646;2022-11-20T04:39:00;32.53;;;14.47;;
5831;SDS011;50943;51.448;7.646;2022-11-20T04:41:28;32.90;;;16.77;;
5831;SDS011;50943;51.448;7.646;2022-11-20T04:43:55;37.10;;;16.10;;
5831;SDS011;50943;51.448;7.646;2022-11-20T04:46:24;32.30;;;16.70;;
5831;SDS011;50943;51.448;7.646;2022-11-20T04:48:51;27.73;;;14.30;;
5831;SDS011;50943;51.448;7.646;2022-11-20T04:51:17;26.10;;;14.97;;
5831;SDS011;50943;51.448;7.646;2022-11-20T04:53:44;34.27;;;15.50;;
5831;SDS011;50943;51.448;7.646;2022-11-20T04:56:11;27.97;;;14.30;;
5831;SDS011;50943;51.448;7.646;2022-11-20T04:58:39;31.50;;;14.40;;
5831;SDS011;50943;51.448;7.646;2022-11-20T05:01:06;36.87;;;16.37;;
5831;SDS011;50943;51.448;7.646;2022-11-20T05:03:33;34.90;;;16.10;;
5831;SDS011;50943;51.448;7.646;2022-11-20T05:06:00;33.60;;;15.80;;
5831;SDS011;50943;51.448;7.646;2022-11-20T05:08:27;36.23;;;15.47;;
5831;SDS011;50943;51.448;7.646;2022-11-20T05:10:53;34.93;;;15.57;;
5831;SDS011;50943;51.448;7.646;2022-11-20T05:13:20;29.67;;;13.60;;
5831;SDS011;50943;51.448;7.646;2022-11-20T05:15:48;32.23;;;14.27;;
5831;SDS011;50943;51.448;7.646;2022-11-20T05:18:14;33.53;;;16.83;;
5831;SDS011;50943;51.448;7.646;2022-11-20T05:20:40;28.50;;;14.63;;
5831;SDS011;50943;51.448;7.646;2022-11-20T05:23:07;32.23;;;15.63;;
5831;SDS011;50943;51.448;7.646;2022-11-20T05:25:33;29.77;;;15.13;;
5831;SDS011;50943;51.448;7.646;2022-11-20T05:28:00;32.60;;;15.10;;
5831;SDS011;50943;51.448;7.646;2022-11-20T05:30:26;25.93;;;13.10;;
5831;SDS011;50943;51.448;7.646;2022-11-20T05:32:54;30.03;;;14.43;;
5831;SDS011;50943;51.448;7.646;2022-11-20T05:35:21;30.33;;;13.40;;
5831;SDS011;50943;51.448;7.646;2022-11-20T05:37:49;34.03;;;15.13;;
5831;SDS011;50943;51.448;7.646;2022-11-20T05:40:15;32.60;;;14.03;;
5831;SDS011;50943;51.448;7.646;2022-11-20T05:42:41;29.77;;;15.47;;
5831;SDS011;50943;51.448;7.646;2022-11-20T05:45:08;33.57;;;15.27;;
5831;SDS011;50943;51.448;7.646;2022-11-20T05:47:35;30.27;;;15.43;;
5831;SDS011;50943;51.448;7.646;2022-11-20T05:50:03;32.50;;;15.20;;
5831;SDS011;50943;51.448;7.646;2022-11-20T05:52:29;30.60;;;13.80;;
5831;SDS011;50943;51.448;7.646;2022-11-20T05:54:56;24.73;;;12.63;;
5831;SDS011;50943;51.448;7.646;2022-11-20T05:57:24;27.40;;;14.70;;
5831;SDS011;50943;51.448;7.646;2022-11-20T05:59:50;22.33;;;12.50;;
5831;SDS011;50943;51.448;7.646;2022-11-20T06:02:17;27.20;;;14.10;;
5831;SDS011;50943;51.448;7.646;2022-11-20T06:04:43;26.97;;;14.30;;
5831;SDS011;50943;51.448;7.646;2022-11-20T06:07:11;29.90;;;14.13;;
5831;SDS011;50943;51.448;7.646;2022-11-20T06:09:38;30.63;;;14.10;;
5831;SDS011;50943;51.448;7.646;2022-11-20T06:12:05;25.87;;;12.80;;
5831;SDS011;50943;51.448;7.646;2022-11-20T06:14:31;28.17;;;13.30;;
5831;SDS011;50943;51.448;7.646;2022-11-20T06:16:58;26.90;;;13.60;;
5831;SDS011;50943;51.448;7.646;2022-11-20T06:19:25;27.67;;;14.43;;
5831;SDS011;50943;51.448;7.646;2022-11-20T06:21:52;30.30;;;13.00;;
5831;SDS011;50943;51.448;7.646;2022-11-20T06:24:19;31.43;;;13.20;;
5831;SDS011;50943;51.448;7.646;2022-11-20T06:26:46;24.70;;;12.70;;
5831;SDS011;50943;51.448;7.646;2022-11-20T06:29:13;27.07;;;13.67;;
5831;SDS011;50943;51.448;7.646;2022-11-20T06:31:40;27.00;;;13.50;;
5831;SDS011;50943;51.448;7.646;2022-11-20T06:34:07;28.40;;;14.20;;
5831;SDS011;50943;51.448;7.646;2022-11-20T06:36:34;27.80;;;13.40;;
5831;SDS011;50943;51.448;7.646;2022-11-20T06:39:01;28.63;;;14.53;;
5831;SDS011;50943;51.448;7.646;2022-11-20T06:41:29;30.43;;;14.23;;
5831;SDS011;50943;51.448;7.646;2022-11-20T06:43:55;30.57;;;14.17;;
5831;SDS011;50943;51.448;7.646;2022-11-20T06:46:23;25.10;;;13.73;;
5831;SDS011;50943;51.448;7.646;2022-11-20T06:48:49;28.57;;;13.00;;
5831;SDS011;50943;51.448;7.646;2022-11-20T06:51:16;29.43;;;13.40;;
5831;SDS011;50943;51.448;7.646;2022-11-20T06:53:42;26.43;;;13.23;;
5831;SDS011;50943;51.448;7.646;2022-11-20T06:56:09;34.73;;;13.97;;
5831;SDS011;50943;51.448;7.646;2022-11-20T06:58:36;28.27;;;13.50;;
5831;SDS011;50943;51.448;7.646;2022-11-20T07:01:03;26.70;;;13.03;;
5831;SDS011;50943;51.448;7.646;2022-11-20T07:03:30;28.10;;;13.53;;
5831;SDS011;50943;51.448;7.646;2022-11-20T07:05:57;27.53;;;12.67;;
5831;SDS011;50943;51.448;7.646;2022-11-20T07:08:25;30.30;;;13.70;;
5831;SDS011;50943;51.448;7.646;2022-11-20T07:10:52;28.13;;;13.40;;
5831;SDS011;50943;51.448;7.646;2022-11-20T07:13:18;28.50;;;12.83;;
5831;SDS011;50943;51.448;7.646;2022-11-20T07:15:46;27.40;;;13.67;;
5831;SDS011;50943;51.448;7.646;2022-11-20T07:18:12;29.90;;;13.20;;
5831;SDS011;50943;51.448;7.646;2022-11-20T07:20:39;29.83;;;12.90;;
5831;SDS011;50943;51.448;7.646;2022-11-20T07:23:05;30.63;;;13.87;;
5831;SDS011;50943;51.448;7.646;2022-11-20T07:25:31;27.97;;;13.13;;
5831;SDS011;50943;51.448;7.646;2022-11-20T07:27:58;29.33;;;12.77;;
5831;SDS011;50943;51.448;7.646;2022-11-20T07:30:25;25.73;;;12.50;;
5831;SDS011;50943;51.448;7.646;2022-11-20T07:32:56;36.00;;;14.10;;
5831;SDS011;50943;51.448;7.646;2022-11-20T07:35:23;31.67;;;14.83;;
5831;SDS011;50943;51.448;7.646;2022-11-20T07:37:50;34.33;;;15.17;;
5831;SDS011;50943;51.448;7.646;2022-11-20T07:40:17;29.80;;;14.83;;
5831;SDS011;50943;51.448;7.646;2022-11-20T07:42:48;30.83;;;14.77;;
5831;SDS011;50943;51.448;7.646;2022-11-20T07:45:15;32.13;;;15.00;;
5831;SDS011;50943;51.448;7.646;2022-11-20T07:47:41;30.93;;;14.37;;
5831;SDS011;50943;51.448;7.646;2022-11-20T07:50:09;28.97;;;14.63;;
5831;SDS011;50943;51.448;7.646;2022-11-20T07:52:36;29.93;;;15.17;;
5831;SDS011;50943;51.448;7.646;2022-11-20T07:55:03;26.77;;;13.80;;
5831;SDS011;50943;51.448;7.646;2022-11-20T07:57:31;29.17;;;13.90;;
5831;SDS011;50943;51.448;7.646;2022-11-20T07:59:57;26.73;;;13.17;;
5831;SDS011;50943;51.448;7.646;2022-11-20T08:02:23;24.50;;;13.00;;
5831;SDS011;50943;51.448;7.646;2022-11-20T08:04:51;31.97;;;13.97;;
5831;SDS011;50943;51.448;7.646;2022-11-20T08:07:19;30.00;;;14.57;;
5831;SDS011;50943;51.448;7.646;2022-11-20T08:09:46;33.47;;;15.60;;
5831;SDS011;50943;51.448;7.646;2022-11-20T08:12:15;28.97;;;14.73;;
5831;SDS011;50943;51.448;7.646;2022-11-20T08:15:00;30.43;;;14.10;;
5831;SDS011;50943;51.448;7.646;2022-11-20T08:17:27;23.23;;;13.03;;
5831;SDS011;50943;51.448;7.646;2022-11-20T08:19:53;22.77;;;12.10;;
5831;SDS011;50943;51.448;7.646;2022-11-20T08:22:21;26.83;;;12.80;;
5831;SDS011;50943;51.448;7.646;2022-11-20T08:24:47;27.97;;;12.77;;
5831;SDS011;50943;51.448;7.646;2022-11-20T08:27:14;21.70;;;11.90;;
5831;SDS011;50943;51.448;7.646;2022-11-20T08:29:40;26.10;;;13.20;;
5831;SDS011;50943;51.448;7.646;2022-11-20T08:32:08;24.97;;;12.40;;
5831;SDS011;50943;51.448;7.646;2022-11-20T08:34:34;27.00;;;12.77;;
5831;SDS011;50943;51.448;7.646;2022-11-20T08:37:01;30.43;;;14.10;;
5831;SDS011;50943;51.448;7.646;2022-11-20T08:39:28;26.87;;;13.60;;
5831;SDS011;50943;51.448;7.646;2022-11-20T08:41:55;29.20;;;15.23;;
5831;SDS011;50943;51.448;7.646;2022-11-20T08:44:21;26.40;;;13.63;;
5831;SDS011;50943;51.448;7.646;2022-11-20T08:46:48;27.33;;;13.07;;
5831;SDS011;50943;51.448;7.646;2022-11-20T08:49:14;30.00;;;14.33;;
5831;SDS011;50943;51.448;7.646;2022-11-20T08:51:40;27.77;;;14.37;;
5831;SDS011;50943;51.448;7.646;2022-11-20T08:54:07;31.00;;;15.70;;
5831;SDS011;50943;51.448;7.646;2022-11-20T08:56:35;28.13;;;15.40;;
5831;SDS011;50943;51.448;7.646;2022-11-20T08:59:02;31.27;;;16.43;;
5831;SDS011;50943;51.448;7.646;2022-11-20T09:01:29;31.80;;;16.57;;
5831;SDS011;50943;51.448;7.646;2022-11-20T09:03:55;28.97;;;15.10;;
5831;SDS011;50943;51.448;7.646;2022-11-20T09:06:22;34.57;;;15.67;;
5831;SDS011;50943;51.448;7.646;2022-11-20T09:08:51;28.27;;;13.97;;
5831;SDS011;50943;51.448;7.646;2022-11-20T09:11:17;31.43;;;16.03;;
5831;SDS011;50943;51.448;7.646;2022-11-20T09:13:45;34.10;;;16.60;;
5831;SDS011;50943;51.448;7.646;2022-11-20T09:16:12;27.50;;;16.63;;
5831;SDS011;50943;51.448;7.646;2022-11-20T09:18:39;27.03;;;15.20;;
5831;SDS011;50943;51.448;7.646;2022-11-20T09:21:08;28.07;;;14.70;;
5831;SDS011;50943;51.448;7.646;2022-11-20T09:23:36;25.10;;;13.77;;
5831;SDS011;50943;51.448;7.646;2022-11-20T09:26:03;27.20;;;13.17;;
5831;SDS011;50943;51.448;7.646;2022-11-20T09:28:29;26.07;;;13.90;;
5831;SDS011;50943;51.448;7.646;2022-11-20T09:30:57;28.53;;;14.43;;
5831;SDS011;50943;51.448;7.646;2022-11-20T09:33:24;30.43;;;14.50;;
5831;SDS011;50943;51.448;7.646;2022-11-20T09:35:50;29.13;;;14.83;;
5831;SDS011;50943;51.448;7.646;2022-11-20T09:38:17;27.30;;;13.13;;
5831;SDS011;50943;51.448;7.646;2022-11-20T09:40:44;25.33;;;13.50;;
5831;SDS011;50943;51.448;7.646;2022-11-20T09:43:12;27.60;;;13.90;;
5831;SDS011;50943;51.448;7.646;2022-11-20T09:45:44;27.37;;;14.20;;
5831;SDS011;50943;51.448;7.646;2022-11-20T09:48:24;27.53;;;13.10;;
5831;SDS011;50943;51.448;7.646;2022-11-20T09:50:55;30.10;;;15.10;;
5831;SDS011;50943;51.448;7.646;2022-11-20T09:53:24;24.47;;;13.40;;
5831;SDS011;50943;51.448;7.646;2022-11-20T09:55:51;28.90;;;14.30;;
5831;SDS011;50943;51.448;7.646;2022-11-20T09:58:21;32.00;;;14.17;;
5831;SDS011;50943;51.448;7.646;2022-11-20T10:00:50;25.20;;;13.93;;
5831;SDS011;50943;51.448;7.646;2022-11-20T10:03:24;31.33;;;15.43;;
5831;SDS011;50943;51.448;7.646;2022-11-20T10:05:54;26.10;;;13.20;;
5831;SDS011;50943;51.448;7.646;2022-11-20T10:08:21;29.73;;;14.77;;
5831;SDS011;50943;51.448;7.646;2022-11-20T10:10:49;27.40;;;14.27;;
5831;SDS011;50943;51.448;7.646;2022-11-20T10:13:28;27.83;;;13.80;;
5831;SDS011;50943;51.448;7.646;2022-11-20T10:15:59;28.60;;;15.63;;
5831;SDS011;50943;51.448;7.646;2022-11-20T10:18:34;31.97;;;15.87;;
5831;SDS011;50943;51.448;7.646;2022-11-20T10:21:05;24.97;;;14.40;;
5831;SDS011;50943;51.448;7.646;2022-11-20T10:23:36;29.73;;;15.70;;
5831;SDS011;50943;51.448;7.646;2022-11-20T10:26:14;29.77;;;14.50;;
5831;SDS011;50943;51.448;7.646;2022-11-20T10:28:45;24.57;;;12.97;;
5831;SDS011;50943;51.448;7.646;2022-11-20T10:31:24;28.63;;;14.63;;
5831;SDS011;50943;51.448;7.646;2022-11-20T10:33:54;26.70;;;15.33;;
5831;SDS011;50943;51.448;7.646;2022-11-20T10:36:23;25.10;;;14.20;;
5831;SDS011;50943;51.448;7.646;2022-11-20T10:38:53;30.47;;;13.70;;
5831;SDS011;50943;51.448;7.646;2022-11-20T10:41:21;32.50;;;16.07;;
5831;SDS011;50943;51.448;7.646;2022-11-20T10:43:52;32.87;;;17.43;;
5831;SDS011;50943;51.448;7.646;2022-11-20T10:46:20;29.93;;;13.47;;
5831;SDS011;50943;51.448;7.646;2022-11-20T10:48:47;28.30;;;13.97;;
5831;SDS011;50943;51.448;7.646;2022-11-20T10:51:19;30.10;;;15.60;;
5831;SDS011;50943;51.448;7.646;2022-11-20T10:53:56;31.30;;;14.77;;
5831;SDS011;50943;51.448;7.646;2022-11-20T10:56:25;18.40;;;8.27;;
5831;SDS011;50943;51.448;7.646;2022-11-20T10:58:59;31.20;;;15.00;;
5831;SDS011;50943;51.448;7.646;2022-11-20T11:01:28;25.70;;;13.10;;
5831;SDS011;50943;51.448;7.646;2022-11-20T11:03:55;16.87;;;9.30;;
5831;SDS011;50943;51.448;7.646;2022-11-20T11:06:25;19.77;;;10.10;;
5831;SDS011;50943;51.448;7.646;2022-11-20T11:08:55;18.30;;;8.90;;
5831;SDS011;50943;51.448;7.646;2022-11-20T11:11:23;22.93;;;11.10;;
5831;SDS011;50943;51.448;7.646;2022-11-20T11:13:49;24.20;;;11.70;;
5831;SDS011;50943;51.448;7.646;2022-11-20T11:16:19;24.40;;;11.10;;
5831;SDS011;50943;51.448;7.646;2022-11-20T11:18:46;23.07;;;10.87;;
5831;SDS011;50943;51.448;7.646;2022-11-20T11:21:12;22.17;;;12.30;;
5831;SDS011;50943;51.448;7.646;2022-11-20T11:23:42;20.60;;;11.87;;
5831;SDS011;50943;51.448;7.646;2022-11-20T11:26:18;19.17;;;9.80;;
5831;SDS011;50943;51.448;7.646;2022-11-20T11:28:52;17.37;;;9.13;;
5831;SDS011;50943;51.448;7.646;2022-11-20T11:31:21;22.23;;;11.07;;
5831;SDS011;50943;51.448;7.646;2022-11-20T11:33:48;18.00;;;10.40;;
5831;SDS011;50943;51.448;7.646;2022-11-20T11:36:16;19.07;;;10.80;;
5831;SDS011;50943;51.448;7.646;2022-11-20T11:38:45;21.77;;;10.23;;
5831;SDS011;50943;51.448;7.646;2022-11-20T11:41:12;17.00;;;9.80;;
5831;SDS011;50943;51.448;7.646;2022-11-20T11:43:48;20.03;;;11.10;;
5831;SDS011;50943;51.448;7.646;2022-11-20T11:46:34;23.63;;;10.93;;
5831;SDS011;50943;51.448;7.646;2022-11-20T11:49:01;16.10;;;9.70;;
5831;SDS011;50943;51.448;7.646;2022-11-20T11:51:30;22.13;;;10.30;;
5831;SDS011;50943;51.448;7.646;2022-11-20T11:53:59;20.20;;;10.83;;
5831;SDS011;50943;51.448;7.646;2022-11-20T11:56:26;24.20;;;11.93;;
5831;SDS011;50943;51.448;7.646;2022-11-20T11:58:53;20.97;;;10.07;;
5831;SDS011;50943;51.448;7.646;2022-11-20T12:01:25;18.67;;;9.90;;
5831;SDS011;50943;51.448;7.646;2022-11-20T12:03:55;16.37;;;9.83;;
5831;SDS011;50943;51.448;7.646;2022-11-20T12:06:25;13.50;;;8.57;;
5831;SDS011;50943;51.448;7.646;2022-11-20T12:08:57;16.73;;;9.40;;
5831;SDS011;50943;51.448;7.646;2022-11-20T12:11:29;14.20;;;9.13;;
5831;SDS011;50943;51.448;7.646;2022-11-20T12:13:57;15.47;;;8.93;;
5831;SDS011;50943;51.448;7.646;2022-11-20T12:16:26;19.20;;;10.00;;
5831;SDS011;50943;51.448;7.646;2022-11-20T12:18:53;19.70;;;10.80;;
5831;SDS011;50943;51.448;7.646;2022-11-20T12:21:24;17.07;;;9.70;;
5831;SDS011;50943;51.448;7.646;2022-11-20T12:24:04;15.83;;;8.30;;
5831;SDS011;50943;51.448;7.646;2022-11-20T12:26:41;15.50;;;8.90;;
5831;SDS011;50943;51.448;7.646;2022-11-20T12:29:10;16.93;;;9.20;;
5831;SDS011;50943;51.448;7.646;2022-11-20T12:34:24;18.60;;;10.13;;
5831;SDS011;50943;51.448;7.646;2022-11-20T12:36:54;18.40;;;9.93;;
5831;SDS011;50943;51.448;7.646;2022-11-20T12:39:33;15.77;;;9.30;;
5831;SDS011;50943;51.448;7.646;2022-11-20T12:42:05;15.30;;;9.33;;
5831;SDS011;50943;51.448;7.646;2022-11-20T12:44:59;18.60;;;9.83;;
5831;SDS011;50943;51.448;7.646;2022-11-20T12:47:41;15.67;;;9.20;;
5831;SDS011;50943;51.448;7.646;2022-11-20T12:50:11;18.00;;;9.63;;
5831;SDS011;50943;51.448;7.646;2022-11-20T12:52:42;16.43;;;8.93;;
5831;SDS011;50943;51.448;7.646;2022-11-20T12:55:13;12.83;;;7.83;;
5831;SDS011;50943;51.448;7.646;2022-11-20T12:57:46;13.67;;;7.63;;
5831;SDS011;50943;51.448;7.646;2022-11-20T13:00:16;15.93;;;8.73;;
5831;SDS011;50943;51.448;7.646;2022-11-20T13:05:31;13.73;;;7.30;;
5831;SDS011;50943;51.448;7.646;2022-11-20T13:07:59;14.57;;;8.30;;
5831;SDS011;50943;51.448;7.646;2022-11-20T13:10:28;15.90;;;8.20;;
5831;SDS011;50943;51.448;7.646;2022-11-20T13:12:58;13.23;;;7.60;;
5831;SDS011;50943;51.448;7.646;2022-11-20T13:15:31;14.60;;;7.47;;
5831;SDS011;50943;51.448;7.646;2022-11-20T13:18:01;14.10;;;7.73;;
5831;SDS011;50943;51.448;7.646;2022-11-20T13:20:29;15.27;;;7.90;;
5831;SDS011;50943;51.448;7.646;2022-11-20T13:22:56;16.50;;;7.90;;
5831;SDS011;50943;51.448;7.646;2022-11-20T13:25:24;15.43;;;8.13;;
5831;SDS011;50943;51.448;7.646;2022-11-20T13:27:50;16.40;;;7.50;;
5831;SDS011;50943;51.448;7.646;2022-11-20T13:30:20;14.20;;;8.40;;
5831;SDS011;50943;51.448;7.646;2022-11-20T13:32:50;17.20;;;8.83;;
5831;SDS011;50943;51.448;7.646;2022-11-20T13:35:25;22.90;;;11.00;;
5831;SDS011;50943;51.448;7.646;2022-11-20T13:37:59;19.47;;;11.10;;
5831;SDS011;50943;51.448;7.646;2022-11-20T13:40:25;18.87;;;10.37;;
5831;SDS011;50943;51.448;7.646;2022-11-20T13:42:55;20.57;;;10.80;;
5831;SDS011;50943;51.448;7.646;2022-11-20T13:45:24;20.30;;;10.80;;
5831;SDS011;50943;51.448;7.646;2022-11-20T13:47:51;20.60;;;11.10;;
5831;SDS011;50943;51.448;7.646;2022-11-20T13:50:19;21.17;;;10.90;;
5831;SDS011;50943;51.448;7.646;2022-11-20T13:52:49;21.80;;;10.80;;
5831;SDS011;50943;51.448;7.646;2022-11-20T13:55:19;20.07;;;11.27;;
5831;SDS011;50943;51.448;7.646;2022-11-20T13:57:58;19.40;;;10.03;;
5831;SDS011;50943;51.448;7.646;2022-11-20T14:00:31;17.37;;;9.50;;
5831;SDS011;50943;51.448;7.646;2022-11-20T14:02:59;18.77;;;11.00;;
5831;SDS011;50943;51.448;7.646;2022-11-20T14:05:27;18.77;;;10.53;;
5831;SDS011;50943;51.448;7.646;2022-11-20T14:07:55;22.37;;;10.80;;
5831;SDS011;50943;51.448;7.646;2022-11-20T14:10:23;20.27;;;9.93;;
5831;SDS011;50943;51.448;7.646;2022-11-20T14:12:49;17.77;;;10.20;;
5831;SDS011;50943;51.448;7.646;2022-11-20T14:15:27;18.87;;;9.90;;
5831;SDS011;50943;51.448;7.646;2022-11-20T14:17:54;19.60;;;10.10;;
5831;SDS011;50943;51.448;7.646;2022-11-20T14:20:21;19.50;;;10.03;;
5831;SDS011;50943;51.448;7.646;2022-11-20T14:22:50;20.97;;;10.70;;
5831;SDS011;50943;51.448;7.646;2022-11-20T14:25:20;17.30;;;9.27;;
5831;SDS011;50943;51.448;7.646;2022-11-20T14:27:52;17.20;;;8.93;;
5831;SDS011;50943;51.448;7.646;2022-11-20T14:30:21;21.43;;;10.17;;
5831;SDS011;50943;51.448;7.646;2022-11-20T14:32:48;21.77;;;9.47;;
5831;SDS011;50943;51.448;7.646;2022-11-20T14:35:17;19.30;;;9.50;;
5831;SDS011;50943;51.448;7.646;2022-11-20T14:37:44;18.67;;;10.07;;
5831;SDS011;50943;51.448;7.646;2022-11-20T14:40:25;17.10;;;9.43;;
5831;SDS011;50943;51.448;7.646;2022-11-20T14:42:51;19.97;;;10.47;;
5831;SDS011;50943;51.448;7.646;2022-11-20T14:45:18;19.73;;;11.60;;
5831;SDS011;50943;51.448;7.646;2022-11-20T14:47:44;20.67;;;10.33;;